createdAt,value
2022-10-24T00:01:26.859Z,15.10
2022-10-24T00:03:54.872Z,15.95
2022-10-24T00:06:22.342Z,15.83
2022-10-24T00:08:49.989Z,16.08
2022-10-24T00:11:26.615Z,17.15
2022-10-24T00:13:56.265Z,16.55
2022-10-24T00:16:24.237Z,18.50
2022-10-24T00:18:51.655Z,18.23
2022-10-24T00:21:19.155Z,17.50
2022-10-24T00:23:47.031Z,17.55
2022-10-24T00:26:15.760Z,16.83
2022-10-24T00:28:43.633Z,17.60
2022-10-24T00:31:16.482Z,16.73
2022-10-24T00:33:44.393Z,16.70
2022-10-24T00:36:18.963Z,17.85
2022-10-24T00:38:46.930Z,18.48
2022-10-24T00:41:20.834Z,17.27
2022-10-24T00:43:48.626Z,20.03
2022-10-24T00:46:17.567Z,17.55
2022-10-24T00:48:53.041Z,17.85
2022-10-24T00:51:31.232Z,19.02
2022-10-24T00:54:03.223Z,18.42
2022-10-24T00:56:33.258Z,18.63
2022-10-24T00:59:03.416Z,19.48
2022-10-24T01:01:31.573Z,18.42
2022-10-24T01:03:59.035Z,18.60
2022-10-24T01:06:48.134Z,17.60
2022-10-24T01:09:30.000Z,18.73
2022-10-24T01:12:00.980Z,17.90
2022-10-24T01:14:56.835Z,19.70
2022-10-24T01:17:36.348Z,18.08
2022-10-24T01:20:17.435Z,18.80
2022-10-24T01:23:23.090Z,17.53
2022-10-24T01:26:16.165Z,17.08
2022-10-24T01:29:29.036Z,16.83
2022-10-24T01:32:08.937Z,17.05
2022-10-24T01:34:46.752Z,16.98
2022-10-24T01:37:19.436Z,17.27
2022-10-24T01:39:50.396Z,18.30
2022-10-24T01:42:20.460Z,18.58
2022-10-24T01:44:50.772Z,17.65
2022-10-24T01:47:23.081Z,18.20
2022-10-24T01:49:55.044Z,18.03
2022-10-24T01:52:23.815Z,18.73
2022-10-24T01:54:52.066Z,17.15
2022-10-24T01:57:19.561Z,18.37
2022-10-24T01:59:48.792Z,17.77
2022-10-24T02:02:31.928Z,16.67
2022-10-24T02:05:27.430Z,17.37
2022-10-24T02:07:57.959Z,16.40
2022-10-24T02:10:33.261Z,16.95
2022-10-24T02:13:05.982Z,16.50
2022-10-24T02:15:38.470Z,16.40
2022-10-24T02:18:06.513Z,15.82
2022-10-24T02:20:56.212Z,16.45
2022-10-24T02:23:35.335Z,15.85
2022-10-24T02:26:05.843Z,15.82
2022-10-24T02:28:39.432Z,16.13
2022-10-24T02:31:11.477Z,14.73
2022-10-24T02:33:40.516Z,14.98
2022-10-24T02:36:10.910Z,14.55
2022-10-24T02:38:41.195Z,15.73
2022-10-24T02:41:13.485Z,16.03
2022-10-24T02:43:41.579Z,15.75
2022-10-24T02:46:09.791Z,15.52
2022-10-24T02:48:41.237Z,16.48
2022-10-24T02:51:09.721Z,15.57
2022-10-24T02:53:37.409Z,16.27
2022-10-24T02:56:05.129Z,16.80
2022-10-24T02:58:32.803Z,16.58
2022-10-24T03:01:00.339Z,15.32
2022-10-24T03:03:27.799Z,16.15
2022-10-24T03:05:55.680Z,16.17
2022-10-24T03:08:23.133Z,16.05
2022-10-24T03:10:50.639Z,15.65
2022-10-24T03:13:18.396Z,16.80
2022-10-24T03:18:18.422Z,16.97
2022-10-24T03:20:46.518Z,16.15
2022-10-24T03:23:13.938Z,16.77
2022-10-24T03:25:41.724Z,16.80
2022-10-24T03:28:09.193Z,16.87
2022-10-24T03:30:36.678Z,15.40
2022-10-24T03:33:04.413Z,16.30
2022-10-24T03:35:31.815Z,16.45
2022-10-24T03:37:59.238Z,15.20
2022-10-24T03:40:26.912Z,16.75
2022-10-24T03:42:54.334Z,15.73
2022-10-24T03:45:21.852Z,15.82
2022-10-24T03:47:49.596Z,15.38
2022-10-24T03:50:17.201Z,15.18
2022-10-24T03:52:44.854Z,15.85
2022-10-24T03:55:13.405Z,14.47
2022-10-24T03:57:40.937Z,15.20
2022-10-24T04:00:09.051Z,14.87
2022-10-24T04:02:38.035Z,16.45
2022-10-24T04:05:08.712Z,15.20
2022-10-24T04:07:36.208Z,15.97
2022-10-24T04:10:10.641Z,14.82
2022-10-24T04:12:38.046Z,15.88
2022-10-24T04:15:06.285Z,15.50
2022-10-24T04:17:33.790Z,15.27
2022-10-24T04:20:01.272Z,14.73
2022-10-24T04:22:29.016Z,13.20
2022-10-24T04:24:56.473Z,12.80
2022-10-24T04:27:23.917Z,13.15
2022-10-24T04:29:51.713Z,12.93
2022-10-24T04:32:19.204Z,13.23
2022-10-24T04:34:46.665Z,13.20
2022-10-24T04:37:14.327Z,13.85
2022-10-24T04:39:41.707Z,13.90
2022-10-24T04:42:09.161Z,14.10
2022-10-24T04:44:36.834Z,14.93
2022-10-24T04:47:04.405Z,14.18
2022-10-24T04:49:31.943Z,13.85
2022-10-24T04:51:59.727Z,14.15
2022-10-24T04:54:27.165Z,15.00
2022-10-24T04:56:54.709Z,14.27
2022-10-24T04:59:22.492Z,14.77
2022-10-24T05:01:50.205Z,13.62
2022-10-24T05:04:17.729Z,13.77
2022-10-24T05:06:45.862Z,14.25
2022-10-24T05:09:14.296Z,14.43
2022-10-24T05:11:41.769Z,14.15
2022-10-24T05:14:09.707Z,14.57
2022-10-24T05:16:37.184Z,14.90
2022-10-24T05:19:04.652Z,13.23
2022-10-24T05:21:33.845Z,13.37
2022-10-24T05:24:01.425Z,14.18
2022-10-24T05:26:29.176Z,13.80
2022-10-24T05:28:57.141Z,12.00
2022-10-24T05:31:24.701Z,12.63
2022-10-24T05:33:52.170Z,13.13
2022-10-24T05:36:20.012Z,12.93
2022-10-24T05:38:47.984Z,12.98
2022-10-24T05:41:15.435Z,13.85
2022-10-24T05:43:43.221Z,13.35
2022-10-24T05:46:10.747Z,13.90
2022-10-24T05:48:38.240Z,14.02
2022-10-24T05:51:06.185Z,13.98
2022-10-24T05:53:36.408Z,14.02
2022-10-24T05:56:05.297Z,14.90
2022-10-24T05:58:33.140Z,16.00
2022-10-24T06:01:01.475Z,16.27
2022-10-24T06:03:29.369Z,16.50
2022-10-24T06:05:56.909Z,17.35
2022-10-24T06:08:24.380Z,16.25
2022-10-24T06:10:52.280Z,15.83
2022-10-24T06:13:19.719Z,16.87
2022-10-24T06:15:47.211Z,17.52
2022-10-24T06:18:15.108Z,17.10
2022-10-24T06:20:42.565Z,17.75
2022-10-24T06:23:09.953Z,16.93
2022-10-24T06:25:40.544Z,16.50
2022-10-24T06:30:41.707Z,15.13
2022-10-24T06:33:09.143Z,15.50
2022-10-24T06:35:36.689Z,14.50
2022-10-24T06:38:04.415Z,14.50
2022-10-24T06:40:31.900Z,14.80
2022-10-24T06:42:59.299Z,15.57
2022-10-24T06:45:26.992Z,16.65
2022-10-24T06:47:54.911Z,16.03
2022-10-24T06:50:22.631Z,18.08
2022-10-24T07:08:02.806Z,18.98
2022-10-24T07:10:30.840Z,17.73
2022-10-24T07:38:45.017Z,17.92
2022-10-24T07:41:13.287Z,15.43
2022-10-24T07:43:41.139Z,13.65
2022-10-24T07:46:14.266Z,15.50
2022-10-24T07:48:42.682Z,14.63
2022-10-24T07:51:12.872Z,15.30
2022-10-24T07:53:40.980Z,16.90
2022-10-24T07:56:13.154Z,16.02
2022-10-24T07:58:40.649Z,13.90
2022-10-24T08:01:11.254Z,14.13
2022-10-24T08:03:39.330Z,13.07
2022-10-24T08:06:12.737Z,13.37
2022-10-24T08:08:41.012Z,13.15
2022-10-24T08:11:10.374Z,13.45
2022-10-24T08:13:38.082Z,12.48
2022-10-24T08:16:10.186Z,12.93
2022-10-24T08:18:39.625Z,11.60
2022-10-24T08:21:10.474Z,11.63
2022-10-24T08:23:40.063Z,12.52
2022-10-24T08:26:09.163Z,12.63
2022-10-24T08:28:36.799Z,15.55
2022-10-24T08:31:07.369Z,16.27
2022-10-24T08:33:35.401Z,15.52
2022-10-24T08:36:17.216Z,15.55
2022-10-24T08:38:45.057Z,15.57
2022-10-24T08:41:40.600Z,17.05
2022-10-24T08:44:22.148Z,15.30
2022-10-24T08:46:55.110Z,15.55
2022-10-24T08:49:37.943Z,15.60
2022-10-24T08:52:24.978Z,16.48
2022-10-24T08:54:52.969Z,15.90
2022-10-24T08:57:27.498Z,16.30
2022-10-24T08:59:59.543Z,17.50
2022-10-24T09:02:31.628Z,16.37
2022-10-24T09:05:17.657Z,15.45
2022-10-24T09:07:47.151Z,14.05
2022-10-24T09:10:32.924Z,13.67
2022-10-24T09:13:00.389Z,14.98
2022-10-24T09:15:30.425Z,13.52
2022-10-24T09:17:59.570Z,14.10
2022-10-24T09:20:29.582Z,12.90
2022-10-24T09:23:00.468Z,12.57
2022-10-24T09:25:30.642Z,12.75
2022-10-24T09:27:59.307Z,13.30
2022-10-24T09:30:31.374Z,13.73
2022-10-24T09:33:12.984Z,13.90
2022-10-24T09:35:40.551Z,13.30
2022-10-24T09:38:25.443Z,13.45
2022-10-24T09:40:57.352Z,13.55
2022-10-24T09:43:56.642Z,14.43
2022-10-24T09:46:27.097Z,14.10
2022-10-24T09:48:57.366Z,14.03
2022-10-24T09:51:35.190Z,14.18
2022-10-24T09:54:07.766Z,13.57
2022-10-24T09:56:41.076Z,12.45
2022-10-24T09:59:31.831Z,13.27
2022-10-24T10:02:19.510Z,12.73
2022-10-24T10:04:49.490Z,12.60
2022-10-24T10:07:20.118Z,13.25
2022-10-24T10:09:57.166Z,11.63
2022-10-24T10:12:39.642Z,12.55
2022-10-24T10:15:35.805Z,12.00
2022-10-24T10:18:39.189Z,12.10
2022-10-24T10:21:12.637Z,10.95
2022-10-24T10:23:46.008Z,11.60
2022-10-24T10:26:18.965Z,10.77
2022-10-24T10:28:55.384Z,11.57
2022-10-24T10:31:44.221Z,11.18
2022-10-24T10:34:24.827Z,11.20
2022-10-24T10:37:24.300Z,10.75
2022-10-24T10:39:54.692Z,10.13
2022-10-24T10:42:39.579Z,9.70
2022-10-24T10:45:28.502Z,10.00
2022-10-24T10:48:43.377Z,9.20
2022-10-24T10:51:28.156Z,9.20
2022-10-24T10:54:23.365Z,11.88
2022-10-24T10:56:54.763Z,11.17
2022-10-24T10:59:24.612Z,10.90
2022-10-24T11:02:28.990Z,11.70
2022-10-24T11:05:28.005Z,11.65
2022-10-24T11:08:19.267Z,10.85
2022-10-24T11:10:54.488Z,10.80
2022-10-24T11:13:30.450Z,11.23
2022-10-24T11:16:04.392Z,10.98
2022-10-24T11:18:38.312Z,11.10
2022-10-24T11:21:09.024Z,11.35
2022-10-24T11:23:59.881Z,11.53
2022-10-24T11:26:50.820Z,11.60
2022-10-24T11:29:27.155Z,11.35
2022-10-24T11:32:21.165Z,12.10
2022-10-24T11:34:52.732Z,11.00
2022-10-24T11:37:35.234Z,11.13
2022-10-24T11:40:12.314Z,10.60
2022-10-24T11:42:41.300Z,10.80
2022-10-24T11:45:11.114Z,11.45
2022-10-24T11:47:43.573Z,11.52
2022-10-24T11:50:26.745Z,9.87
2022-10-24T11:53:03.373Z,11.40
2022-10-24T11:55:39.040Z,10.60
2022-10-24T11:58:13.200Z,11.40
2022-10-24T12:01:18.697Z,12.43
2022-10-24T12:03:57.821Z,13.10
2022-10-24T12:06:52.840Z,14.40
2022-10-24T12:09:52.911Z,14.68
2022-10-24T12:12:57.643Z,14.50
2022-10-24T12:15:49.705Z,13.23
2022-10-24T12:18:38.967Z,15.17
2022-10-24T12:21:10.731Z,14.73
2022-10-24T12:23:40.955Z,16.10
2022-10-24T12:26:14.591Z,13.48
2022-10-24T12:28:43.571Z,14.00
2022-10-24T12:31:14.864Z,16.20
2022-10-24T12:33:43.719Z,15.93
2022-10-24T12:36:11.909Z,16.80
2022-10-24T12:38:39.773Z,16.10
2022-10-24T12:41:32.995Z,15.25
2022-10-24T12:44:24.540Z,16.00
2022-10-24T12:46:53.561Z,18.73
2022-10-24T12:49:30.282Z,17.33
2022-10-24T12:51:58.653Z,16.30
2022-10-24T12:54:41.528Z,16.30
2022-10-24T12:57:09.425Z,20.40
2022-10-24T12:59:58.064Z,15.50
2022-10-24T13:02:31.524Z,18.48
2022-10-24T13:05:25.578Z,18.55
2022-10-24T13:07:59.117Z,20.17
2022-10-24T13:10:29.906Z,20.20
2022-10-24T13:13:12.686Z,19.17
2022-10-24T13:15:52.456Z,19.05
2022-10-24T13:18:26.094Z,18.77
2022-10-24T13:21:12.668Z,19.62
2022-10-24T13:23:45.237Z,19.80
2022-10-24T13:26:34.663Z,20.90
2022-10-24T13:29:02.148Z,19.75
2022-10-24T13:31:29.858Z,22.17
2022-10-24T13:34:29.594Z,31.35
2022-10-24T13:37:04.024Z,20.03
2022-10-24T13:39:38.004Z,18.65
2022-10-24T13:42:17.400Z,20.05
2022-10-24T13:44:48.523Z,18.83
2022-10-24T13:47:23.350Z,19.52
2022-10-24T13:50:15.160Z,19.30
2022-10-24T13:52:49.483Z,18.73
2022-10-24T13:55:38.121Z,18.65
2022-10-24T13:58:05.797Z,20.25
2022-10-24T14:00:36.053Z,19.33
2022-10-24T14:03:05.198Z,18.80
2022-10-24T14:05:35.892Z,20.80
2022-10-24T14:08:04.105Z,22.05
2022-10-24T14:10:32.170Z,21.42
2022-10-24T14:13:00.017Z,18.17
2022-10-24T14:15:30.228Z,17.97
2022-10-24T14:18:04.705Z,17.70
2022-10-24T14:20:34.522Z,17.95
2022-10-24T14:23:26.701Z,18.37
2022-10-24T14:25:59.290Z,18.83
2022-10-24T14:28:31.938Z,19.93
2022-10-24T14:31:01.851Z,19.85
2022-10-24T14:33:31.488Z,19.60
2022-10-24T14:36:00.541Z,19.20
2022-10-24T14:38:28.653Z,19.45
2022-10-24T14:41:08.286Z,18.67
2022-10-24T14:43:41.180Z,18.85
2022-10-24T14:46:09.014Z,18.85
2022-10-24T14:48:37.833Z,20.77
2022-10-24T14:51:09.610Z,21.25
2022-10-24T14:53:39.040Z,23.80
2022-10-24T14:56:36.241Z,23.73
2022-10-24T14:59:06.267Z,13.82
2022-10-24T15:01:34.323Z,14.05
2022-10-24T15:04:03.616Z,15.35
2022-10-24T15:06:40.252Z,17.57
2022-10-24T15:09:10.692Z,20.77
2022-10-24T15:11:41.209Z,19.65
2022-10-24T15:14:38.887Z,19.70
2022-10-24T15:17:18.900Z,19.42
2022-10-24T15:19:47.159Z,19.87
2022-10-24T15:22:35.707Z,20.23
2022-10-24T15:25:16.336Z,21.73
2022-10-24T15:27:45.485Z,20.52
2022-10-24T15:30:19.096Z,19.80
2022-10-24T15:32:47.797Z,20.53
2022-10-24T15:35:16.219Z,18.77
2022-10-24T15:37:58.897Z,20.00
2022-10-24T15:40:30.536Z,18.35
2022-10-24T15:42:57.994Z,18.52
2022-10-24T15:45:26.043Z,19.70
2022-10-24T15:47:56.332Z,20.40
2022-10-24T15:50:24.559Z,20.85
2022-10-24T15:52:55.327Z,21.33
2022-10-24T15:55:25.838Z,22.25
2022-10-24T15:57:53.745Z,21.23
2022-10-24T16:00:22.467Z,22.05
2022-10-24T16:02:51.622Z,22.92
2022-10-24T16:05:22.361Z,21.60
2022-10-24T16:07:52.157Z,21.00
2022-10-24T16:10:21.744Z,20.07
2022-10-24T16:12:50.384Z,20.75
2022-10-24T16:15:24.848Z,22.13
2022-10-24T16:17:53.337Z,21.02
2022-10-24T16:20:21.644Z,20.85
2022-10-24T16:22:49.625Z,20.83
2022-10-24T16:25:23.216Z,19.75
2022-10-24T16:27:51.679Z,20.17
2022-10-24T16:30:21.520Z,18.35
2022-10-24T16:32:49.900Z,18.70
2022-10-24T16:35:24.127Z,18.90
2022-10-24T16:37:54.108Z,17.80
2022-10-24T16:40:24.810Z,18.42
2022-10-24T16:42:55.797Z,17.55
2022-10-24T16:45:24.961Z,17.20
2022-10-24T16:47:52.944Z,15.13
2022-10-24T16:50:24.363Z,14.90
2022-10-24T16:53:03.038Z,16.52
2022-10-24T16:55:31.984Z,14.32
2022-10-24T16:58:00.105Z,14.10
2022-10-24T17:00:30.363Z,12.80
2022-10-24T17:02:58.892Z,14.52
2022-10-24T17:05:28.302Z,14.38
2022-10-24T17:07:56.256Z,14.10
2022-10-24T17:10:24.937Z,16.23
2022-10-24T17:12:53.525Z,15.13
2022-10-24T17:15:22.427Z,14.20
2022-10-24T17:17:51.617Z,13.43
2022-10-24T17:20:19.735Z,13.95
2022-10-24T17:22:47.910Z,14.73
2022-10-24T17:25:24.485Z,14.50
2022-10-24T17:27:53.196Z,14.82
2022-10-24T17:30:26.489Z,13.60
2022-10-24T17:32:54.512Z,13.18
2022-10-24T17:35:24.063Z,13.55
2022-10-24T17:38:29.222Z,14.63
2022-10-24T17:41:01.600Z,13.15
2022-10-24T17:43:29.900Z,15.25
2022-10-24T17:45:58.320Z,15.45
2022-10-24T17:48:27.564Z,17.17
2022-10-24T17:50:56.129Z,16.90
2022-10-24T17:53:24.573Z,15.68
2022-10-24T17:55:53.281Z,15.38
2022-10-24T17:58:21.406Z,14.65
2022-10-24T18:00:51.170Z,13.40
2022-10-24T18:03:23.110Z,15.57
2022-10-24T18:05:51.384Z,14.25
2022-10-24T18:08:20.064Z,13.98
2022-10-24T18:10:47.783Z,13.73
2022-10-24T18:13:15.483Z,12.93
2022-10-24T18:15:46.899Z,13.53
2022-10-24T18:18:15.636Z,13.10
2022-10-24T18:20:44.672Z,12.35
2022-10-24T18:23:12.590Z,12.57
2022-10-24T18:25:40.460Z,12.07
2022-10-24T18:28:09.790Z,11.17
2022-10-24T18:30:37.754Z,12.32
2022-10-24T18:33:06.632Z,11.65
2022-10-24T18:35:36.490Z,12.40
2022-10-24T18:38:04.450Z,12.65
2022-10-24T18:40:33.550Z,11.97
2022-10-24T18:43:05.145Z,13.05
2022-10-24T18:45:33.517Z,12.30
2022-10-24T18:48:02.443Z,13.00
2022-10-24T18:50:30.655Z,12.35
2022-10-24T18:53:10.703Z,11.97
2022-10-24T18:55:39.115Z,12.13
2022-10-24T18:58:11.535Z,11.00
2022-10-24T19:00:40.605Z,11.85
2022-10-24T19:03:29.516Z,10.52
2022-10-24T19:06:06.275Z,10.60
2022-10-24T19:08:34.177Z,11.00
2022-10-24T19:11:02.388Z,9.52
2022-10-24T19:13:30.155Z,10.75
2022-10-24T19:16:00.604Z,10.70
2022-10-24T19:18:31.327Z,10.50
2022-10-24T19:20:59.852Z,10.75
2022-10-24T19:23:27.960Z,11.32
2022-10-24T19:25:55.923Z,10.40
2022-10-24T19:28:23.645Z,9.63
2022-10-24T19:30:51.904Z,10.33
2022-10-24T19:33:24.897Z,11.40
2022-10-24T19:35:53.601Z,11.27
2022-10-24T19:38:22.616Z,11.40
2022-10-24T19:40:52.766Z,12.55
2022-10-24T19:43:22.308Z,12.50
2022-10-24T19:46:07.054Z,12.18
2022-10-24T19:48:42.626Z,11.30
2022-10-24T19:51:12.952Z,11.73
2022-10-24T19:53:42.581Z,10.95
2022-10-24T19:56:21.460Z,10.13
2022-10-24T19:58:52.065Z,12.02
2022-10-24T20:01:22.625Z,13.23
2022-10-24T20:03:55.115Z,12.40
2022-10-24T20:06:24.441Z,13.02
2022-10-24T20:08:52.428Z,11.60
2022-10-24T20:11:20.734Z,11.73
2022-10-24T20:13:50.326Z,10.98
2022-10-24T20:16:23.989Z,11.20
2022-10-24T20:18:51.649Z,13.45
2022-10-24T20:21:19.493Z,13.17
2022-10-24T20:23:48.376Z,13.38
2022-10-24T20:26:26.161Z,12.55
2022-10-24T20:28:55.372Z,11.90
2022-10-24T20:31:29.602Z,11.93
2022-10-24T20:34:05.114Z,11.37
2022-10-24T20:36:40.152Z,11.68
2022-10-24T20:39:08.511Z,12.00
2022-10-24T20:41:36.580Z,12.55
2022-10-24T20:44:06.794Z,13.52
2022-10-24T20:46:35.701Z,13.20
2022-10-24T20:49:10.513Z,11.65
2022-10-24T20:51:41.130Z,12.02
2022-10-24T20:54:09.776Z,12.70
2022-10-24T20:56:42.024Z,12.77
2022-10-24T20:59:12.824Z,13.13
2022-10-24T21:01:40.685Z,12.70
2022-10-24T21:04:08.262Z,12.10
2022-10-24T21:06:35.988Z,12.50
2022-10-24T21:09:05.792Z,12.77
2022-10-24T21:11:34.071Z,14.33
2022-10-24T21:14:02.853Z,13.38
2022-10-24T21:16:30.999Z,13.18
2022-10-24T21:18:59.320Z,13.85
2022-10-24T21:21:27.660Z,14.13
2022-10-24T21:24:00.792Z,15.13
2022-10-24T21:26:31.781Z,15.00
2022-10-24T21:29:08.550Z,15.20
2022-10-24T21:31:46.961Z,14.60
2022-10-24T21:34:14.367Z,15.95
2022-10-24T21:36:41.828Z,17.37
2022-10-24T21:39:14.139Z,16.62
2022-10-24T21:41:41.652Z,17.25
2022-10-24T21:44:09.705Z,17.77
2022-10-24T21:46:37.148Z,18.67
2022-10-24T21:49:05.248Z,18.53
2022-10-24T21:51:35.177Z,18.60
2022-10-24T21:54:08.095Z,18.58
2022-10-24T21:56:39.169Z,18.08
2022-10-24T21:59:10.184Z,19.65
2022-10-24T22:01:38.398Z,19.83
2022-10-24T22:04:06.516Z,22.35
2022-10-24T22:06:35.179Z,20.83
2022-10-24T22:09:04.216Z,21.85
2022-10-24T22:11:33.205Z,21.30
2022-10-24T22:14:00.957Z,21.37
2022-10-24T22:16:29.739Z,21.52
2022-10-24T22:19:00.314Z,21.80
2022-10-24T22:21:31.917Z,21.45
2022-10-24T22:26:33.404Z,22.10
2022-10-24T22:29:01.341Z,21.40
2022-10-24T22:31:29.752Z,20.65
2022-10-24T22:33:58.065Z,20.92
2022-10-24T22:36:47.074Z,22.10
2022-10-24T22:39:17.000Z,22.27
2022-10-24T22:41:45.749Z,21.17
2022-10-24T22:44:15.244Z,22.83
2022-10-24T22:47:03.853Z,23.10
2022-10-24T22:50:02.820Z,22.13
2022-10-24T22:52:30.647Z,22.33
2022-10-24T22:54:58.516Z,22.58
2022-10-24T22:57:26.195Z,23.30
2022-10-24T22:59:54.267Z,22.20
2022-10-24T23:02:37.895Z,24.55
2022-10-24T23:05:29.255Z,22.50
2022-10-24T23:08:10.206Z,23.33
2022-10-24T23:10:39.898Z,23.25
2022-10-24T23:13:09.388Z,23.90
2022-10-24T23:15:37.044Z,26.08
2022-10-24T23:18:04.777Z,24.80
2022-10-24T23:20:50.453Z,25.10
2022-10-24T23:23:28.693Z,24.85
2022-10-24T23:26:03.371Z,25.25
2022-10-24T23:28:40.623Z,23.42
2022-10-24T23:31:08.638Z,24.77
2022-10-24T23:33:36.353Z,25.10
2022-10-24T23:36:04.077Z,26.55
2022-10-24T23:38:32.585Z,28.33
2022-10-24T23:41:00.528Z,28.90
2022-10-24T23:43:28.243Z,29.63
2022-10-24T23:46:29.873Z,29.52
2022-10-24T23:49:15.097Z,32.30
2022-10-24T23:52:09.599Z,30.85
2022-10-24T23:54:37.514Z,32.55
2022-10-24T23:57:15.000Z,32.70
2022-10-24T23:59:42.975Z,32.90
